createdAt,value
2018-02-09T00:01:19.389Z,100286.28
2018-02-09T00:03:47.839Z,100290.02
2018-02-09T00:06:16.236Z,100290.19
2018-02-09T00:08:44.652Z,100294.61
2018-02-09T00:11:13.094Z,100295.65
2018-02-09T00:13:41.504Z,100287.80
2018-02-09T00:16:09.917Z,100288.14
2018-02-09T00:18:38.359Z,100290.48
2018-02-09T00:21:06.757Z,100290.97
2018-02-09T00:23:35.177Z,100289.05
2018-02-09T00:26:03.647Z,100281.77
2018-02-09T00:28:32.060Z,100282.02
2018-02-09T00:31:00.526Z,100279.16
2018-02-09T00:33:28.974Z,100270.23
2018-02-09T00:35:57.373Z,100271.70
2018-02-09T00:38:25.765Z,100276.30
2018-02-09T00:40:54.227Z,100274.66
2018-02-09T00:43:22.621Z,100275.99
2018-02-09T00:45:51.036Z,100269.62
2018-02-09T00:48:19.503Z,100265.94
2018-02-09T00:50:47.924Z,100266.99
2018-02-09T00:53:16.317Z,100265.97
2018-02-09T00:55:44.766Z,100263.84
2018-02-09T00:58:13.175Z,100260.34
2018-02-09T01:00:41.570Z,100265.63
2018-02-09T01:03:10.018Z,100263.48
2018-02-09T01:05:38.418Z,100261.63
2018-02-09T01:08:06.838Z,100263.92
2018-02-09T01:10:35.304Z,100261.07
2018-02-09T01:13:03.709Z,100258.70
2018-02-09T01:15:32.101Z,100258.13
2018-02-09T01:18:00.537Z,100259.91
2018-02-09T01:20:28.933Z,100254.47
2018-02-09T01:22:57.344Z,100255.56
2018-02-09T01:25:25.800Z,100257.34
2018-02-09T01:27:54.193Z,100252.67
2018-02-09T01:30:22.608Z,100261.56
2018-02-09T01:32:51.066Z,100253.42
2018-02-09T01:35:19.461Z,100253.87
2018-02-09T01:37:47.880Z,100252.79
2018-02-09T01:40:16.340Z,100242.97
2018-02-09T01:42:44.766Z,100243.94
2018-02-09T01:45:13.188Z,100245.80
2018-02-09T01:47:41.655Z,100238.45
2018-02-09T01:50:16.020Z,100235.34
2018-02-09T01:52:44.464Z,100237.14
2018-02-09T01:55:12.876Z,100232.84
2018-02-09T01:57:41.276Z,100226.52
2018-02-09T02:00:09.754Z,100223.84
2018-02-09T02:02:38.159Z,100227.77
2018-02-09T02:05:06.553Z,100226.28
2018-02-09T02:07:34.987Z,100226.17
2018-02-09T02:10:03.401Z,100220.73
2018-02-09T02:12:31.802Z,100226.75
2018-02-09T02:15:00.249Z,100225.70
2018-02-09T02:17:28.642Z,100225.20
2018-02-09T02:19:57.063Z,100220.95
2018-02-09T02:22:25.507Z,100222.67
2018-02-09T02:24:53.911Z,100214.55
2018-02-09T02:27:22.309Z,100212.75
2018-02-09T02:29:50.765Z,100211.83
2018-02-09T02:32:19.160Z,100215.73
2018-02-09T02:34:47.580Z,100209.59
2018-02-09T02:37:16.026Z,100200.86
2018-02-09T02:39:44.429Z,100203.58
2018-02-09T02:42:12.834Z,100204.61
2018-02-09T02:44:41.277Z,100206.98
2018-02-09T02:47:09.713Z,100198.40
2018-02-09T02:49:38.173Z,100205.12
2018-02-09T02:52:06.632Z,100205.20
2018-02-09T02:54:35.040Z,100202.18
2018-02-09T02:57:03.445Z,100201.86
2018-02-09T02:59:31.907Z,100194.39
2018-02-09T03:02:01.053Z,100193.26
2018-02-09T03:04:30.546Z,100190.02
2018-02-09T03:06:59.002Z,100193.20
2018-02-09T03:09:27.420Z,100187.31
2018-02-09T03:11:56.767Z,100179.61
2018-02-09T03:14:25.213Z,100189.69
2018-02-09T03:16:53.612Z,100192.84
2018-02-09T03:19:22.030Z,100187.01
2018-02-09T03:21:50.473Z,100182.01
2018-02-09T03:24:18.878Z,100187.70
2018-02-09T03:26:47.293Z,100176.94
2018-02-09T03:29:15.773Z,100182.78
2018-02-09T03:31:44.169Z,100181.95
2018-02-09T03:34:12.569Z,100179.77
2018-02-09T03:36:41.024Z,100179.34
2018-02-09T03:39:09.451Z,100175.85
2018-02-09T03:41:37.868Z,100177.30
2018-02-09T03:44:06.310Z,100173.86
2018-02-09T03:46:34.720Z,100169.37
2018-02-09T03:49:03.129Z,100165.45
2018-02-09T03:51:31.729Z,100170.92
2018-02-09T03:54:00.125Z,100165.56
2018-02-09T03:56:28.521Z,100164.84
2018-02-09T03:58:56.961Z,100157.70
2018-02-09T04:01:25.372Z,100155.66
2018-02-09T04:03:53.801Z,100157.47
2018-02-09T04:06:22.249Z,100151.95
2018-02-09T04:08:50.649Z,100146.70
2018-02-09T04:11:19.077Z,100144.09
2018-02-09T04:13:47.535Z,100138.66
2018-02-09T04:16:15.953Z,100133.52
2018-02-09T04:18:44.371Z,100132.06
2018-02-09T04:21:12.940Z,100130.83
2018-02-09T04:23:41.364Z,100124.03
2018-02-09T04:26:09.802Z,100120.02
2018-02-09T04:28:38.284Z,100118.78
2018-02-09T04:31:06.728Z,100117.59
2018-02-09T04:33:35.143Z,100116.66
2018-02-09T04:36:03.605Z,100115.94
2018-02-09T04:38:32.001Z,100115.03
2018-02-09T04:41:00.497Z,100107.78
2018-02-09T04:43:28.947Z,100112.91
2018-02-09T04:45:57.360Z,100108.44
2018-02-09T04:48:25.766Z,100105.63
2018-02-09T04:50:54.202Z,100104.66
2018-02-09T04:53:22.630Z,100097.05
2018-02-09T04:55:51.056Z,100099.76
2018-02-09T04:58:19.513Z,100094.77
2018-02-09T05:00:47.928Z,100099.13
2018-02-09T05:03:16.353Z,100095.52
2018-02-09T05:05:44.841Z,100101.65
2018-02-09T05:08:13.249Z,100097.66
2018-02-09T05:10:41.649Z,100089.99
2018-02-09T05:13:10.119Z,100086.86
2018-02-09T05:15:38.597Z,100092.75
2018-02-09T05:18:07.022Z,100084.77
2018-02-09T05:20:35.483Z,100083.65
2018-02-09T05:23:03.917Z,100081.33
2018-02-09T05:25:32.313Z,100081.38
2018-02-09T05:28:00.773Z,100087.05
2018-02-09T05:30:29.170Z,100089.48
2018-02-09T05:32:57.642Z,100076.02
2018-02-09T05:35:26.086Z,100084.49
2018-02-09T05:37:54.484Z,100088.48
2018-02-09T05:40:22.921Z,100087.11
2018-02-09T05:42:51.383Z,100082.13
2018-02-09T05:45:19.813Z,100078.37
2018-02-09T05:47:48.238Z,100073.06
2018-02-09T05:50:16.815Z,100074.59
2018-02-09T05:52:46.617Z,100072.65
2018-02-09T05:55:15.857Z,100069.30
2018-02-09T05:57:44.257Z,100062.69
2018-02-09T06:00:12.658Z,100071.52
2018-02-09T06:02:41.114Z,100068.24
2018-02-09T06:05:09.514Z,100067.03
2018-02-09T06:07:37.943Z,100062.03
2018-02-09T06:10:06.428Z,100060.73
2018-02-09T06:12:34.859Z,100058.60
2018-02-09T06:15:03.297Z,100064.73
2018-02-09T06:17:31.833Z,100061.95
2018-02-09T06:20:00.256Z,100057.80
2018-02-09T06:22:29.380Z,100065.27
2018-02-09T06:24:57.854Z,100050.25
2018-02-09T06:27:26.257Z,100059.26
2018-02-09T06:29:54.662Z,100054.32
2018-02-09T06:32:23.126Z,100060.38
2018-02-09T06:34:51.543Z,100055.66
2018-02-09T06:37:19.977Z,100051.73
2018-02-09T06:39:48.456Z,100046.41
2018-02-09T06:42:16.857Z,100055.48
2018-02-09T06:44:45.282Z,100044.55
2018-02-09T06:47:13.764Z,100051.42
2018-02-09T06:49:42.213Z,100045.92
2018-02-09T06:52:10.670Z,100052.28
2018-02-09T06:54:39.127Z,100054.48
2018-02-09T06:57:07.545Z,100056.64
2018-02-09T06:59:35.955Z,100056.08
2018-02-09T07:02:04.421Z,100057.37
2018-02-09T07:04:32.846Z,100059.98
2018-02-09T07:07:01.289Z,100058.91
2018-02-09T07:09:29.740Z,100065.39
2018-02-09T07:11:58.136Z,100067.09
2018-02-09T07:14:26.547Z,100066.19
2018-02-09T07:16:55.005Z,100068.56
2018-02-09T07:19:23.425Z,100070.77
2018-02-09T07:21:51.844Z,100065.14
2018-02-09T07:24:20.294Z,100067.01
2018-02-09T07:26:48.748Z,100063.52
2018-02-09T07:29:17.532Z,100064.46
2018-02-09T07:31:45.982Z,100061.28
2018-02-09T07:34:14.418Z,100063.98
2018-02-09T07:36:42.839Z,100065.13
2018-02-09T07:39:11.324Z,100061.27
2018-02-09T07:41:39.754Z,100062.94
2018-02-09T07:44:08.172Z,100065.78
2018-02-09T07:46:36.641Z,100063.88
2018-02-09T07:49:05.063Z,100063.31
2018-02-09T07:51:33.475Z,100063.80
2018-02-09T07:54:01.947Z,100063.09
2018-02-09T07:56:30.374Z,100062.63
2018-02-09T07:58:58.800Z,100060.93
2018-02-09T08:01:27.259Z,100058.80
2018-02-09T08:03:55.697Z,100055.03
2018-02-09T08:06:24.138Z,100051.96
2018-02-09T08:08:52.600Z,100054.11
2018-02-09T08:11:21.026Z,100048.75
2018-02-09T08:13:49.485Z,100050.02
2018-02-09T08:16:17.943Z,100046.19
2018-02-09T08:18:46.353Z,100057.36
2018-02-09T08:21:14.790Z,100047.71
2018-02-09T08:23:43.245Z,100053.30
2018-02-09T08:26:11.675Z,100048.66
2018-02-09T08:28:40.078Z,100058.83
2018-02-09T08:31:08.531Z,100041.40
2018-02-09T08:33:36.936Z,100043.19
2018-02-09T08:36:05.361Z,100039.28
2018-02-09T08:38:33.837Z,100035.50
2018-02-09T08:41:02.245Z,100027.73
2018-02-09T08:43:30.686Z,100037.33
2018-02-09T08:45:59.181Z,100028.89
2018-02-09T08:48:27.603Z,100039.58
2018-02-09T08:50:56.054Z,100047.45
2018-02-09T08:53:24.531Z,100033.87
2018-02-09T08:55:52.942Z,100032.81
2018-02-09T08:58:21.358Z,100039.45
2018-02-09T09:00:49.987Z,100040.80
2018-02-09T09:03:18.405Z,100038.23
2018-02-09T09:05:46.847Z,100039.92
2018-02-09T09:08:15.322Z,100040.64
2018-02-09T09:10:43.762Z,100031.64
2018-02-09T09:13:12.166Z,100032.55
2018-02-09T09:15:40.622Z,100031.39
2018-02-09T09:18:09.029Z,100023.83
2018-02-09T09:20:37.467Z,100025.38
2018-02-09T09:23:05.937Z,100019.44
2018-02-09T09:25:34.345Z,100023.20
2018-02-09T09:28:02.770Z,100022.23
2018-02-09T09:30:31.222Z,100019.23
2018-02-09T09:32:59.631Z,100022.91
2018-02-09T09:35:28.077Z,100020.44
2018-02-09T09:37:56.590Z,100021.85
2018-02-09T09:40:25.017Z,100014.78
2018-02-09T09:42:53.452Z,100020.42
2018-02-09T09:45:22.068Z,100010.78
2018-02-09T09:47:50.481Z,100013.74
2018-02-09T09:50:18.906Z,100013.19
2018-02-09T09:52:49.107Z,100013.50
2018-02-09T09:55:18.307Z,100010.34
2018-02-09T09:57:46.772Z,100002.48
2018-02-09T10:00:15.227Z,99998.23
2018-02-09T10:02:43.672Z,100003.36
2018-02-09T10:05:12.145Z,99995.09
2018-02-09T10:07:40.584Z,99991.99
2018-02-09T10:10:09.026Z,99997.28
2018-02-09T10:12:37.497Z,99988.95
2018-02-09T10:15:05.921Z,99988.50
2018-02-09T10:17:34.334Z,99976.90
2018-02-09T10:20:02.804Z,99977.70
2018-02-09T10:22:31.242Z,99981.01
2018-02-09T10:24:59.672Z,99976.25
2018-02-09T10:27:28.136Z,99974.44
2018-02-09T10:29:56.568Z,99963.70
2018-02-09T10:32:24.978Z,99958.27
2018-02-09T10:34:53.436Z,99957.27
2018-02-09T10:37:21.846Z,99962.14
2018-02-09T10:39:50.258Z,99958.08
2018-02-09T10:42:18.735Z,99954.01
2018-02-09T10:44:47.158Z,99949.14
2018-02-09T10:47:15.553Z,99948.37
2018-02-09T10:49:44.016Z,99949.67
2018-02-09T10:52:12.440Z,99946.06
2018-02-09T10:54:40.849Z,99946.60
2018-02-09T10:57:09.354Z,99945.32
2018-02-09T10:59:37.765Z,99941.11
2018-02-09T11:02:07.028Z,99950.64
2018-02-09T11:04:35.541Z,99939.72
2018-02-09T11:07:03.969Z,99936.46
2018-02-09T11:09:32.394Z,99931.95
2018-02-09T11:15:09.064Z,118166.81
2018-02-09T11:17:37.554Z,118166.81
2018-02-09T11:20:06.084Z,118166.81
2018-02-09T11:22:34.975Z,118166.81
2018-02-09T11:25:03.470Z,118166.81
2018-02-09T11:27:31.886Z,118166.81
2018-02-09T11:30:00.310Z,118166.81
2018-02-09T11:32:28.770Z,118166.81
2018-02-09T11:34:57.187Z,118166.81
2018-02-09T11:37:25.622Z,118166.81
2018-02-09T11:39:54.116Z,118166.81
2018-02-09T11:42:22.531Z,118166.81
2018-02-09T11:47:18.493Z,118166.81
2018-02-09T11:52:14.426Z,118166.81
2018-02-09T11:54:42.897Z,118166.81
2018-02-09T11:57:11.317Z,118166.81
2018-02-09T11:59:39.719Z,118166.81
2018-02-09T12:02:08.200Z,118166.81
2018-02-09T12:04:36.614Z,118166.81
2018-02-09T12:09:32.538Z,118166.81
2018-02-09T12:16:55.979Z,118166.81
2018-02-09T12:19:24.405Z,118166.81
2018-02-09T12:21:52.869Z,118166.81
2018-02-09T12:31:43.789Z,118166.81
2018-02-09T12:36:39.706Z,118166.81
2018-02-09T12:39:08.190Z,118166.81
2018-02-09T12:41:36.612Z,118166.81
2018-02-09T12:46:32.590Z,118166.81
2018-02-09T12:49:01.001Z,118166.81
2018-02-09T12:51:29.407Z,118166.81
2018-02-09T12:53:57.872Z,118166.81
2018-02-09T13:03:48.883Z,118166.81
2018-02-09T13:06:17.305Z,118166.81
2018-02-09T13:08:45.803Z,118166.81
2018-02-09T13:11:14.222Z,118166.81
2018-02-09T13:13:42.639Z,118166.81
2018-02-09T13:16:11.099Z,118166.81
2018-02-09T13:18:48.282Z,118166.81
2018-02-09T13:21:16.772Z,118166.81
2018-02-09T13:23:57.187Z,118166.81
2018-02-09T13:26:25.803Z,118166.81
2018-02-09T13:29:00.036Z,118166.81
2018-02-09T13:31:28.512Z,118166.81
2018-02-09T13:33:56.953Z,118166.81
2018-02-09T13:36:37.386Z,118166.81
2018-02-09T13:39:05.843Z,118166.81
2018-02-09T13:41:34.279Z,118166.81
2018-02-09T13:44:02.742Z,118166.81
2018-02-09T13:46:31.187Z,118166.81
2018-02-09T13:48:59.630Z,118166.81
2018-02-09T13:51:28.113Z,118166.81
2018-02-09T13:53:56.535Z,118166.81
2018-02-09T13:56:24.952Z,118166.81
2018-02-09T13:58:53.417Z,118166.81
2018-02-09T14:01:21.860Z,118166.81
2018-02-09T14:03:50.284Z,118166.81
2018-02-09T14:06:18.774Z,118166.81
2018-02-09T14:08:47.209Z,118166.81
2018-02-09T14:11:15.648Z,118166.81
2018-02-09T14:13:44.133Z,118166.81
2018-02-09T14:16:12.546Z,118166.81
2018-02-09T14:18:40.980Z,118166.81
2018-02-09T14:21:09.452Z,118166.81
2018-02-09T14:23:37.888Z,118166.81
2018-02-09T14:26:06.345Z,118166.81
2018-02-09T14:28:34.835Z,118166.81
2018-02-09T14:31:03.282Z,118166.81
2018-02-09T14:33:31.728Z,118166.81
2018-02-09T14:36:00.211Z,118166.81
2018-02-09T14:38:28.659Z,118166.81
2018-02-09T14:40:57.106Z,118166.81
2018-02-09T14:43:25.568Z,118166.81
2018-02-09T14:45:54.003Z,118166.81
2018-02-09T14:48:22.443Z,118166.81
2018-02-09T14:50:50.912Z,118166.81
2018-02-09T14:53:19.333Z,118166.81
2018-02-09T14:55:47.764Z,118166.81
2018-02-09T14:58:16.259Z,118166.81
2018-02-09T15:00:44.679Z,118166.81
2018-02-09T15:03:13.115Z,118166.81
2018-02-09T15:05:41.639Z,118166.81
2018-02-09T15:08:10.053Z,118166.81
2018-02-09T15:10:38.543Z,118166.81
2018-02-09T15:13:07.021Z,118166.81
2018-02-09T15:15:35.448Z,118166.81
2018-02-09T15:18:03.898Z,118166.81
2018-02-09T15:20:32.394Z,118166.81
2018-02-09T15:23:00.834Z,118166.81
2018-02-09T15:25:29.266Z,118166.81
2018-02-09T15:27:57.754Z,118166.81
2018-02-09T15:30:26.178Z,118166.81
2018-02-09T15:32:54.619Z,118166.81
2018-02-09T15:35:23.269Z,118166.81
2018-02-09T15:37:51.685Z,118166.81
2018-02-09T15:40:20.104Z,118166.81
2018-02-09T15:42:48.584Z,118166.81
2018-02-09T15:45:17.006Z,118166.81
2018-02-09T15:47:45.441Z,118166.81
2018-02-09T15:50:13.912Z,118166.81
2018-02-09T15:52:42.327Z,118166.81
2018-02-09T15:55:10.744Z,118166.81
2018-02-09T15:57:39.302Z,118166.81
2018-02-09T16:00:07.690Z,118166.81
2018-02-09T16:02:36.106Z,118166.81
2018-02-09T16:05:04.622Z,118166.81
2018-02-09T16:07:33.038Z,118166.81
2018-02-09T16:10:01.446Z,118166.81
2018-02-09T16:12:29.923Z,118166.81
2018-02-09T16:14:58.354Z,118166.81
2018-02-09T16:17:26.798Z,118166.81
2018-02-09T16:19:55.254Z,118166.81
2018-02-09T16:22:23.681Z,118166.81
2018-02-09T16:24:52.887Z,118166.81
2018-02-09T16:27:21.344Z,118166.81
2018-02-09T16:29:49.754Z,118166.81
2018-02-09T16:32:18.182Z,118166.81
2018-02-09T16:34:46.669Z,118166.81
2018-02-09T16:37:15.149Z,118166.81
2018-02-09T16:39:43.572Z,118166.81
2018-02-09T16:42:12.016Z,118166.81
2018-02-09T16:44:40.424Z,118166.81
2018-02-09T16:47:08.886Z,118166.81
2018-02-09T16:49:37.360Z,118166.81
2018-02-09T16:52:05.780Z,118166.81
2018-02-09T16:54:34.237Z,118166.81
2018-02-09T16:57:02.731Z,118166.81
2018-02-09T16:59:31.155Z,118166.81
2018-02-09T17:01:59.604Z,118166.81
2018-02-09T17:04:28.062Z,118166.81
2018-02-09T17:06:56.473Z,118166.81
2018-02-09T17:09:24.911Z,118166.81
2018-02-09T17:11:53.388Z,118166.81
2018-02-09T17:14:21.825Z,118166.81
2018-02-09T17:16:50.309Z,118166.81
2018-02-09T17:19:18.936Z,118166.81
2018-02-09T17:21:47.353Z,118166.81
2018-02-09T17:24:15.784Z,118166.81
2018-02-09T17:26:44.280Z,118166.81
2018-02-09T17:29:12.710Z,118166.81
2018-02-09T17:31:41.126Z,118166.81
2018-02-09T17:34:09.597Z,118166.81
2018-02-09T17:36:38.022Z,118166.81
2018-02-09T17:39:06.453Z,118166.81
2018-02-09T17:41:34.973Z,118166.81
2018-02-09T17:44:03.407Z,118166.81
2018-02-09T17:46:31.831Z,118166.81
2018-02-09T17:49:00.321Z,118166.81
2018-02-09T17:51:28.740Z,118166.81
2018-02-09T17:53:57.170Z,118166.81
2018-02-09T17:56:25.643Z,118166.81
2018-02-09T17:58:54.092Z,118166.81
2018-02-09T18:01:22.530Z,118166.81
2018-02-09T18:03:51.220Z,118166.81
2018-02-09T18:06:19.681Z,118166.81
2018-02-09T18:08:48.118Z,118166.81
2018-02-09T18:11:16.598Z,118166.81
2018-02-09T18:13:45.104Z,118166.81
2018-02-09T18:16:13.541Z,118166.81
2018-02-09T18:18:42.160Z,118166.81
2018-02-09T18:21:10.593Z,118166.81
2018-02-09T18:23:39.021Z,118166.81
2018-02-09T18:26:07.486Z,118166.81
2018-02-09T18:28:35.897Z,118166.81
2018-02-09T18:31:04.321Z,118166.81
2018-02-09T18:33:32.785Z,118166.81
2018-02-09T18:36:01.233Z,118166.81
2018-02-09T18:38:29.673Z,118166.81
2018-02-09T18:40:58.197Z,118166.81
2018-02-09T18:44:11.278Z,99816.33
2018-02-09T18:46:39.720Z,99816.47
2018-02-09T18:49:08.107Z,99820.23
2018-02-09T18:51:36.508Z,99817.87
2018-02-09T18:54:04.958Z,99822.42
2018-02-09T18:56:33.374Z,99826.45
2018-02-09T18:59:01.785Z,99822.34
2018-02-09T19:01:30.593Z,99830.17
2018-02-09T19:03:59.044Z,99821.11
2018-02-09T19:06:27.439Z,99830.27
2018-02-09T19:08:55.897Z,99834.00
2018-02-09T19:11:24.647Z,99827.39
2018-02-09T19:13:53.072Z,99833.77
2018-02-09T19:16:21.522Z,99830.58
2018-02-09T19:18:49.933Z,99840.77
2018-02-09T19:21:18.335Z,99842.09
2018-02-09T19:23:46.800Z,99838.28
2018-02-09T19:26:15.193Z,99841.44
2018-02-09T19:28:43.603Z,99847.06
2018-02-09T19:31:12.063Z,99840.78
2018-02-09T19:33:40.471Z,99844.29
2018-02-09T19:36:08.882Z,99842.59
2018-02-09T19:38:37.349Z,99837.34
2018-02-09T19:41:05.758Z,99840.90
2018-02-09T19:43:34.170Z,99837.19
2018-02-09T19:46:02.611Z,99837.70
2018-02-09T19:48:31.039Z,99838.34
2018-02-09T19:50:59.445Z,99837.70
2018-02-09T19:53:27.877Z,99838.75
2018-02-09T19:55:56.286Z,99837.28
2018-02-09T19:58:24.696Z,99843.98
2018-02-09T20:00:53.141Z,99835.17
2018-02-09T20:03:21.552Z,99838.73
2018-02-09T20:05:49.978Z,99841.48
2018-02-09T20:08:18.430Z,99836.71
2018-02-09T20:10:46.836Z,99831.27
2018-02-09T20:13:15.254Z,99833.70
2018-02-09T20:15:43.826Z,99827.23
2018-02-09T20:18:12.244Z,99829.05
2018-02-09T20:20:40.654Z,99831.07
2018-02-09T20:23:09.130Z,99832.20
2018-02-09T20:25:37.547Z,99833.22
2018-02-09T20:28:06.102Z,99828.19
2018-02-09T20:30:34.556Z,99831.39
2018-02-09T20:33:02.953Z,99831.52
2018-02-09T20:35:31.374Z,99837.95
2018-02-09T20:37:59.827Z,99834.09
2018-02-09T20:40:28.232Z,99832.48
2018-02-09T20:42:56.634Z,99835.88
2018-02-09T20:45:25.105Z,99839.11
2018-02-09T20:47:53.825Z,99837.58
2018-02-09T20:50:22.251Z,99840.01
2018-02-09T20:52:50.742Z,99842.64
2018-02-09T20:55:19.149Z,99836.94
2018-02-09T20:57:47.541Z,99833.73
2018-02-09T21:00:15.986Z,99838.38
2018-02-09T21:02:44.404Z,99835.11
2018-02-09T21:05:12.853Z,99838.63
2018-02-09T21:07:41.329Z,99837.00
2018-02-09T21:10:09.751Z,99843.72
2018-02-09T21:12:38.175Z,99833.05
2018-02-09T21:15:06.647Z,99844.84
2018-02-09T21:17:35.075Z,99841.80
2018-02-09T21:20:03.534Z,99848.40
2018-02-09T21:22:32.002Z,99840.99
2018-02-09T21:25:00.413Z,99843.62
2018-02-09T21:27:28.813Z,99848.97
2018-02-09T21:29:57.292Z,99849.71
2018-02-09T21:32:25.723Z,99852.59
2018-02-09T21:34:54.144Z,99850.51
2018-02-09T21:37:22.600Z,99852.69
2018-02-09T21:39:51.010Z,99852.91
2018-02-09T21:42:19.397Z,99856.14
2018-02-09T21:44:47.853Z,99855.41
2018-02-09T21:47:16.258Z,99848.33
2018-02-09T21:49:44.667Z,99851.98
2018-02-09T21:52:13.105Z,99852.81
2018-02-09T21:54:41.517Z,99853.42
2018-02-09T21:57:09.938Z,99856.63
2018-02-09T21:59:38.401Z,99861.44
2018-02-09T22:02:06.805Z,99864.13
2018-02-09T22:04:35.240Z,99859.26
2018-02-09T22:07:03.710Z,99871.11
2018-02-09T22:09:33.116Z,99863.94
2018-02-09T22:12:01.546Z,99870.73
2018-02-09T22:14:30.035Z,99870.83
2018-02-09T22:16:58.530Z,99872.78
2018-02-09T22:19:26.938Z,99870.92
2018-02-09T22:21:55.399Z,99864.70
2018-02-09T22:24:23.818Z,99874.70
2018-02-09T22:26:52.246Z,99867.43
2018-02-09T22:29:20.698Z,99872.30
2018-02-09T22:31:49.098Z,99869.06
2018-02-09T22:34:17.502Z,99870.92
2018-02-09T22:36:45.981Z,99869.48
2018-02-09T22:39:14.404Z,99866.63
2018-02-09T22:41:42.849Z,99867.07
2018-02-09T22:44:11.339Z,99867.07
2018-02-09T22:46:39.741Z,99867.94
2018-02-09T22:49:08.189Z,99872.67
2018-02-09T22:51:36.628Z,99879.14
2018-02-09T22:54:05.060Z,99876.12
2018-02-09T22:56:33.470Z,99875.20
2018-02-09T22:59:01.929Z,99884.38
2018-02-09T23:01:30.343Z,99882.20
2018-02-09T23:03:58.765Z,99878.87
2018-02-09T23:06:27.212Z,99880.88
2018-02-09T23:08:55.634Z,99886.87
2018-02-09T23:11:24.050Z,99887.47
2018-02-09T23:13:52.498Z,99884.70
2018-02-09T23:16:20.934Z,99886.53
2018-02-09T23:18:49.345Z,99891.78
2018-02-09T23:21:17.811Z,99886.85
2018-02-09T23:23:46.238Z,99894.82
2018-02-09T23:26:14.637Z,99894.94
2018-02-09T23:28:43.107Z,99891.42
2018-02-09T23:31:11.505Z,99884.69
2018-02-09T23:33:39.923Z,99893.22
2018-02-09T23:36:08.413Z,99890.12
2018-02-09T23:38:36.804Z,99894.47
2018-02-09T23:41:05.199Z,99889.70
2018-02-09T23:43:33.670Z,99890.51
2018-02-09T23:46:02.075Z,99891.82
2018-02-09T23:48:30.461Z,99893.94
2018-02-09T23:50:58.926Z,99899.12
2018-02-09T23:53:27.339Z,99892.95
2018-02-09T23:55:55.768Z,99895.55
2018-02-09T23:58:24.214Z,99892.02
